Accueil
METAR-TAF:

METAR-TAF

Aéroports :

Aéroport de Kristiansand Kjevik

Kristiansand, Norvège

latitude: 58-12N, longitude: 008-05E, altitude: 1 m

Observation

Le bulletin a été fait il y a 35 minutes, à 20:50 UTC
Vent 7 kt de ouest/sud-ouest
Température 13°C
Humidité 62%
Pression 1018 hPa
Visibilité 10 km ou plus

METAR: ENCN 112050Z AUTO 25007KT 9999 NCD 13/06 Q1018

Heure: 23:25 (21:25 UTC)

Prévision

Le bulletin a été fait il y a 10 heures et 25 minutes, à 11:00 UTC
Prévision valable du 11 à 12 UTC au 11 à 17 UTC
Vent 10 kt de ouest/nord-ouest
Visibilité 10 km ou plus
Quelques nuages à une hauteur de 4500 ft
Temporairement
du 11 à 13 UTC au 11 à 17 UTC
Vent 15 kt de ouest avec des rafales jusqu'à 25 kt

TAF: ENCN 111100Z 1112/1117 29010KT 9999 FEW045 TEMPO 1113/1117 28015G25KT

Observations et prévisions météorologiques de plus de 4000 aéroports (messages METAR et TAF).

Les stations disponibles sont représentées par des disques jaunes et rouges sur la carte.

Passer la souris dessus pour voir le nom de la station.

Cliquer dessus pour voir les observations et prévisions météorologiques.

Pour changer de carte: cliquez sur les boutons verts avec une croix noire pour zoomer, sur le bouton vert avec un tiret pour effectuer un zoom arrière, ou sur les flèches vertes pour les cartes adjacentes.


METAR-TAF: